Humidity-temperature Sensor

Selected Measurement Type: Relative Humidity

 
Relative Humidity [%]     6 entries per hour
Showing data from 3/31/2015 (00:00:00 Z) to 3/30/2015 (00:01:00 Z)
Previous Next [ Day | 3-Days | 7-Days ]
First Last
Prev [ Day | 3-Days | 7-Days ] Next
First Last

Start Time:     :
End Time:     :     
Time (in GMT) :00 :50 :40 :30 :20 :10
Previous Next [ Day | 3-Days | 7-Days ]
First Last
Prev [ Day | 3-Days | 7-Days ] Next
First Last


123 => good data
MM => data is determined as missing
-- => data not received/configured
Back to Top Back to Top
3/31/2015 00:00 to 23:10 79.99 80.08 80.14 80.64 80.46 79.75
3/30/2015 23:00 to 22:10 79.19 80.90 80.79 81.57 80.83 81.01
3/30/2015 22:00 to 21:10 80.42 80.98 80.23 80.12 80.68 81.03
3/30/2015 21:00 to 20:10 80.57 80.64 80.88 80.36 81.31 81.57
3/30/2015 20:00 to 19:10 81.83 80.79 80.77 81.98 81.07 81.48
3/30/2015 19:00 to 18:10 80.29 81.20 81.07 81.24 81.03 81.27
3/30/2015 18:00 to 17:10 81.20 80.29 80.36 79.82 81.48 82.43
3/30/2015 17:00 to 16:10 81.98 82.72 81.81 80.77 79.38 80.51
3/30/2015 16:00 to 15:10 81.92 80.81 80.34 81.53 81.37 82.15
3/30/2015 15:00 to 14:10 81.22 81.44 81.79 81.14 79.66 81.63
3/30/2015 14:00 to 13:10 82.09 81.55 81.66 81.83 80.29 81.72
3/30/2015 13:00 to 12:10 81.07 80.79 80.90 81.81 81.96 81.85
3/30/2015 12:00 to 11:10 83.15 82.24 81.57 81.46 81.18 81.63
3/30/2015 11:00 to 10:10 81.89 81.83 82.09 81.42 81.16 82.41
3/30/2015 10:00 to 9:10 82.87 82.95 83.17 82.76 83.39 82.54
3/30/2015 09:00 to 8:10 82.20 81.53 80.98 82.24 81.59 82.30
3/30/2015 08:00 to 7:10 81.70 83.02 82.46 82.78 82.35 81.18
3/30/2015 07:00 to 6:10 82.50 81.05 81.01 80.59 80.55 80.31
3/30/2015 06:00 to 5:10 81.57 80.44 82.46 82.50 81.03 82.74
3/30/2015 05:00 to 4:10 81.96 80.62 82.89 82.74 81.57 81.18
3/30/2015 04:00 to 3:10 82.48 81.96 81.29 81.74 81.55 80.94
3/30/2015 03:00 to 2:10 79.32 79.58 79.19 79.25 79.64 79.56
3/30/2015 02:00 to 1:10 77.69 77.26 78.78 78.63 78.26 78.58
3/30/2015 01:00 to 0:10 78.69 78.60 78.28 79.10 78.78 80.40